sensor_id;sensor_type;location;lat;lon;timestamp;pressure;altitude;pressure_sealevel;temperature;humidity
929;BME280;451;47.988;7.842;2023-02-03T00:08:29;100027.63;;;7.30;95.74
929;BME280;451;47.988;7.842;2023-02-03T00:17:34;100038.97;;;7.18;93.88
929;BME280;451;47.988;7.842;2023-02-03T00:26:40;100037.97;;;6.95;95.18
929;BME280;451;47.988;7.842;2023-02-03T00:35:44;100043.53;;;6.91;95.94
929;BME280;451;47.988;7.842;2023-02-03T00:44:47;100040.47;;;6.97;95.21
929;BME280;451;47.988;7.842;2023-02-03T00:53:52;100006.44;;;6.73;95.85
929;BME280;451;47.988;7.842;2023-02-03T01:02:55;100041.31;;;6.97;95.09
929;BME280;451;47.988;7.842;2023-02-03T01:11:59;100057.16;;;7.07;94.91
929;BME280;451;47.988;7.842;2023-02-03T01:21:06;100076.44;;;7.06;94.50
929;BME280;451;47.988;7.842;2023-02-03T01:30:12;99967.75;;;6.29;94.56
929;BME280;451;47.988;7.842;2023-02-03T01:39:15;99968.69;;;6.02;94.45
929;BME280;451;47.988;7.842;2023-02-03T01:48:21;100066.19;;;7.03;96.13
929;BME280;451;47.988;7.842;2023-02-03T01:57:29;100024.41;;;6.77;95.37
929;BME280;451;47.988;7.842;2023-02-03T02:06:35;100032.19;;;6.66;96.27
929;BME280;451;47.988;7.842;2023-02-03T02:15:43;100017.00;;;6.71;97.49
929;BME280;451;47.988;7.842;2023-02-03T02:25:29;100010.97;;;6.58;98.77
929;BME280;451;47.988;7.842;2023-02-03T02:34:50;99945.94;;;6.30;97.69
929;BME280;451;47.988;7.842;2023-02-03T02:44:06;99976.63;;;6.26;97.75
929;BME280;451;47.988;7.842;2023-02-03T02:53:14;100033.19;;;6.76;96.73
929;BME280;451;47.988;7.842;2023-02-03T03:02:19;99964.69;;;6.47;97.73
929;BME280;451;47.988;7.842;2023-02-03T03:11:25;99962.09;;;6.35;100.00
929;BME280;451;47.988;7.842;2023-02-03T03:20:32;99977.84;;;6.46;99.34
929;BME280;451;47.988;7.842;2023-02-03T03:29:39;99974.75;;;6.16;100.00
929;BME280;451;47.988;7.842;2023-02-03T03:38:47;100025.81;;;6.20;100.00
929;BME280;451;47.988;7.842;2023-02-03T03:47:56;99948.06;;;5.60;100.00
929;BME280;451;47.988;7.842;2023-02-03T03:57:05;99956.38;;;6.04;100.00
929;BME280;451;47.988;7.842;2023-02-03T04:06:12;99969.13;;;6.09;100.00
929;BME280;451;47.988;7.842;2023-02-03T04:15:16;99952.41;;;6.12;100.00
929;BME280;451;47.988;7.842;2023-02-03T04:24:20;99979.38;;;5.99;100.00
929;BME280;451;47.988;7.842;2023-02-03T04:33:23;100012.34;;;6.13;100.00
929;BME280;451;47.988;7.842;2023-02-03T04:42:28;99995.97;;;6.24;100.00
929;BME280;451;47.988;7.842;2023-02-03T04:51:31;100032.59;;;6.60;100.00
929;BME280;451;47.988;7.842;2023-02-03T05:00:35;100012.91;;;6.93;100.00
929;BME280;451;47.988;7.842;2023-02-03T05:09:38;99959.50;;;6.35;100.00
929;BME280;451;47.988;7.842;2023-02-03T05:18:42;99999.34;;;6.62;100.00
929;BME280;451;47.988;7.842;2023-02-03T05:27:45;99980.13;;;6.63;100.00
929;BME280;451;47.988;7.842;2023-02-03T05:36:49;99984.31;;;6.53;100.00
929;BME280;451;47.988;7.842;2023-02-03T05:45:52;99972.53;;;6.84;100.00
929;BME280;451;47.988;7.842;2023-02-03T05:54:57;99975.69;;;6.76;100.00
929;BME280;451;47.988;7.842;2023-02-03T06:04:01;99957.97;;;6.56;100.00
929;BME280;451;47.988;7.842;2023-02-03T06:13:09;99851.16;;;5.91;100.00
929;BME280;451;47.988;7.842;2023-02-03T06:22:13;99962.59;;;6.53;100.00
929;BME280;451;47.988;7.842;2023-02-03T06:31:17;100010.19;;;6.81;100.00
929;BME280;451;47.988;7.842;2023-02-03T06:40:20;100047.81;;;6.92;100.00
929;BME280;451;47.988;7.842;2023-02-03T06:49:24;100083.50;;;7.29;100.00
929;BME280;451;47.988;7.842;2023-02-03T06:58:28;100064.88;;;7.21;99.23
929;BME280;451;47.988;7.842;2023-02-03T07:07:32;100054.53;;;6.70;100.00
929;BME280;451;47.988;7.842;2023-02-03T07:16:35;100042.31;;;6.58;100.00
929;BME280;451;47.988;7.842;2023-02-03T07:25:39;99940.31;;;6.11;100.00
929;BME280;451;47.988;7.842;2023-02-03T07:34:42;99930.28;;;6.04;100.00
929;BME280;451;47.988;7.842;2023-02-03T07:43:47;99997.84;;;6.83;100.00
929;BME280;451;47.988;7.842;2023-02-03T07:52:50;100018.38;;;7.01;98.96
929;BME280;451;47.988;7.842;2023-02-03T08:01:55;100035.56;;;7.28;95.33
929;BME280;451;47.988;7.842;2023-02-03T08:10:58;99828.19;;;5.96;95.43
929;BME280;451;47.988;7.842;2023-02-03T08:20:03;99997.06;;;7.31;93.71
929;BME280;451;47.988;7.842;2023-02-03T08:29:06;99990.69;;;7.46;91.81
929;BME280;451;47.988;7.842;2023-02-03T08:38:11;100015.47;;;7.29;93.44
929;BME280;451;47.988;7.842;2023-02-03T08:47:14;100013.44;;;7.56;91.03
929;BME280;451;47.988;7.842;2023-02-03T08:56:18;100025.38;;;7.60;91.49
929;BME280;451;47.988;7.842;2023-02-03T09:05:21;100003.56;;;7.95;89.25
929;BME280;451;47.988;7.842;2023-02-03T09:14:26;100064.38;;;8.22;86.63
929;BME280;451;47.988;7.842;2023-02-03T09:23:29;100084.56;;;8.09;87.72
929;BME280;451;47.988;7.842;2023-02-03T09:32:34;100026.97;;;7.74;87.89
929;BME280;451;47.988;7.842;2023-02-03T09:42:00;100173.38;;;8.12;90.35
929;BME280;451;47.988;7.842;2023-02-03T09:51:17;100102.03;;;7.97;97.39
929;BME280;451;47.988;7.842;2023-02-03T10:00:25;100067.88;;;7.99;100.00
929;BME280;451;47.988;7.842;2023-02-03T10:09:41;100098.50;;;8.09;100.00
929;BME280;451;47.988;7.842;2023-02-03T10:18:52;100118.97;;;8.39;100.00
929;BME280;451;47.988;7.842;2023-02-03T10:28:00;100104.97;;;9.07;99.92
929;BME280;451;47.988;7.842;2023-02-03T10:37:10;99919.66;;;7.74;97.50
929;BME280;451;47.988;7.842;2023-02-03T10:46:18;100022.41;;;8.79;97.52
929;BME280;451;47.988;7.842;2023-02-03T10:55:29;100093.31;;;8.78;94.95
929;BME280;451;47.988;7.842;2023-02-03T11:04:35;100008.63;;;8.20;95.52
929;BME280;451;47.988;7.842;2023-02-03T11:13:39;99834.56;;;7.68;91.74
929;BME280;451;47.988;7.842;2023-02-03T11:22:47;100064.41;;;9.34;89.54
929;BME280;451;47.988;7.842;2023-02-03T11:31:52;100024.41;;;9.73;86.80
929;BME280;451;47.988;7.842;2023-02-03T11:40:59;100033.28;;;10.34;85.87
929;BME280;451;47.988;7.842;2023-02-03T11:50:15;100039.28;;;10.76;82.74
929;BME280;451;47.988;7.842;2023-02-03T12:09:02;100016.66;;;10.13;80.91
929;BME280;451;47.988;7.842;2023-02-03T12:18:19;99988.59;;;10.13;78.99
929;BME280;451;47.988;7.842;2023-02-03T12:27:35;99994.78;;;10.24;76.96
929;BME280;451;47.988;7.842;2023-02-03T12:36:48;99964.00;;;10.45;74.30
929;BME280;451;47.988;7.842;2023-02-03T12:45:56;99926.56;;;10.01;76.24
929;BME280;451;47.988;7.842;2023-02-03T12:55:13;99867.53;;;9.75;76.75
929;BME280;451;47.988;7.842;2023-02-03T13:04:24;99924.94;;;9.80;77.43
929;BME280;451;47.988;7.842;2023-02-03T13:13:39;99972.28;;;9.89;79.23
929;BME280;451;47.988;7.842;2023-02-03T13:22:44;99919.94;;;9.77;76.54
929;BME280;451;47.988;7.842;2023-02-03T13:32:00;99934.34;;;9.82;76.79
929;BME280;451;47.988;7.842;2023-02-03T13:41:09;99963.75;;;9.76;79.75
929;BME280;451;47.988;7.842;2023-02-03T13:50:21;99917.69;;;8.99;82.39
929;BME280;451;47.988;7.842;2023-02-03T13:59:28;99608.19;;;6.98;84.88
929;BME280;451;47.988;7.842;2023-02-03T14:08:52;99982.44;;;8.87;87.91
929;BME280;451;47.988;7.842;2023-02-03T14:18:02;99974.78;;;8.95;87.75
929;BME280;451;47.988;7.842;2023-02-03T14:27:17;99965.47;;;9.02;87.89
929;BME280;451;47.988;7.842;2023-02-03T14:36:43;99942.72;;;9.03;86.20
929;BME280;451;47.988;7.842;2023-02-03T14:46:05;99916.91;;;8.76;88.02
929;BME280;451;47.988;7.842;2023-02-03T14:55:25;99874.81;;;8.34;88.06
929;BME280;451;47.988;7.842;2023-02-03T15:04:32;99762.81;;;7.82;87.41
929;BME280;451;47.988;7.842;2023-02-03T15:13:35;99950.09;;;9.41;85.94
929;BME280;451;47.988;7.842;2023-02-03T15:22:40;99928.06;;;9.53;87.29
929;BME280;451;47.988;7.842;2023-02-03T15:31:45;99946.91;;;9.58;86.67
929;BME280;451;47.988;7.842;2023-02-03T15:40:53;99969.25;;;9.20;87.52
929;BME280;451;47.988;7.842;2023-02-03T15:50:18;99974.88;;;9.16;86.63
929;BME280;451;47.988;7.842;2023-02-03T15:59:29;99899.34;;;8.33;87.51
929;BME280;451;47.988;7.842;2023-02-03T16:08:37;99892.22;;;8.35;87.27
929;BME280;451;47.988;7.842;2023-02-03T16:17:42;99979.38;;;8.71;88.36
929;BME280;451;47.988;7.842;2023-02-03T16:26:45;99982.25;;;8.68;88.86
929;BME280;451;47.988;7.842;2023-02-03T16:35:49;99972.00;;;8.42;88.54
929;BME280;451;47.988;7.842;2023-02-03T16:45:12;99972.94;;;8.53;87.51
929;BME280;451;47.988;7.842;2023-02-03T16:54:35;99808.28;;;7.59;86.42
929;BME280;451;47.988;7.842;2023-02-03T17:03:38;99981.16;;;8.70;85.05
929;BME280;451;47.988;7.842;2023-02-03T17:12:42;99911.03;;;8.18;84.83
929;BME280;451;47.988;7.842;2023-02-03T17:21:45;99929.97;;;8.33;84.98
929;BME280;451;47.988;7.842;2023-02-03T17:30:59;100003.69;;;8.62;83.41
929;BME280;451;47.988;7.842;2023-02-03T17:40:02;100005.34;;;8.63;84.19
929;BME280;451;47.988;7.842;2023-02-03T17:49:07;100003.94;;;8.59;83.50
929;BME280;451;47.988;7.842;2023-02-03T17:58:10;99984.47;;;8.28;85.64
929;BME280;451;47.988;7.842;2023-02-03T18:07:15;99959.44;;;8.01;87.74
929;BME280;451;47.988;7.842;2023-02-03T18:16:21;100047.22;;;8.18;90.93
929;BME280;451;47.988;7.842;2023-02-03T18:25:33;99956.13;;;7.53;92.41
929;BME280;451;47.988;7.842;2023-02-03T18:34:37;100041.25;;;8.05;92.84
929;BME280;451;47.988;7.842;2023-02-03T18:43:44;100037.31;;;8.10;93.20
929;BME280;451;47.988;7.842;2023-02-03T18:52:52;100061.09;;;8.07;93.44
929;BME280;451;47.988;7.842;2023-02-03T19:01:56;100025.53;;;8.16;91.89
929;BME280;451;47.988;7.842;2023-02-03T19:10:59;99974.28;;;7.79;93.44
929;BME280;451;47.988;7.842;2023-02-03T19:20:05;99998.50;;;8.04;91.99
929;BME280;451;47.988;7.842;2023-02-03T19:29:08;99933.88;;;7.48;89.80
929;BME280;451;47.988;7.842;2023-02-03T19:38:12;100027.91;;;8.19;88.98
929;BME280;451;47.988;7.842;2023-02-03T19:47:15;99955.25;;;7.88;86.82
929;BME280;451;47.988;7.842;2023-02-03T19:56:20;99957.28;;;7.84;87.02
929;BME280;451;47.988;7.842;2023-02-03T20:05:23;100010.28;;;7.99;92.28
929;BME280;451;47.988;7.842;2023-02-03T20:14:27;100018.69;;;7.91;94.71
929;BME280;451;47.988;7.842;2023-02-03T20:23:30;100027.78;;;8.09;91.55
929;BME280;451;47.988;7.842;2023-02-03T20:32:35;99910.84;;;7.29;91.01
929;BME280;451;47.988;7.842;2023-02-03T20:41:38;100028.41;;;8.24;89.08
929;BME280;451;47.988;7.842;2023-02-03T20:50:43;99962.41;;;7.51;92.49
929;BME280;451;47.988;7.842;2023-02-03T20:59:47;99960.44;;;7.65;91.86
929;BME280;451;47.988;7.842;2023-02-03T21:08:51;100041.69;;;7.99;93.42
929;BME280;451;47.988;7.842;2023-02-03T21:17:55;100004.97;;;7.77;97.98
929;BME280;451;47.988;7.842;2023-02-03T21:27:00;99962.09;;;6.84;100.00
929;BME280;451;47.988;7.842;2023-02-03T21:36:03;100090.50;;;7.52;100.00
929;BME280;451;47.988;7.842;2023-02-03T21:54:35;100077.84;;;7.22;100.00
929;BME280;451;47.988;7.842;2023-02-03T22:03:44;100063.84;;;7.23;100.00
929;BME280;451;47.988;7.842;2023-02-03T22:12:50;100078.28;;;7.16;100.00
929;BME280;451;47.988;7.842;2023-02-03T22:21:53;100080.22;;;6.89;100.00
929;BME280;451;47.988;7.842;2023-02-03T22:30:57;100076.22;;;7.09;100.00
929;BME280;451;47.988;7.842;2023-02-03T22:40:00;100014.81;;;6.78;100.00
929;BME280;451;47.988;7.842;2023-02-03T22:49:05;100076.56;;;7.28;100.00
929;BME280;451;47.988;7.842;2023-02-03T22:58:08;100088.72;;;7.29;100.00
929;BME280;451;47.988;7.842;2023-02-03T23:07:12;100073.78;;;7.55;100.00
929;BME280;451;47.988;7.842;2023-02-03T23:16:15;100084.53;;;7.26;100.00
929;BME280;451;47.988;7.842;2023-02-03T23:25:19;100087.44;;;7.35;100.00
929;BME280;451;47.988;7.842;2023-02-03T23:34:23;100089.56;;;7.53;100.00
929;BME280;451;47.988;7.842;2023-02-03T23:43:45;100087.81;;;7.89;100.00
929;BME280;451;47.988;7.842;2023-02-03T23:52:48;100096.13;;;7.35;100.00
